Time;durP1;ratioP1;P1;durP2;ratioP2;P2;SDS_P1;SDS_P2;PMS_P1;PMS_P2;Temp;Humidity;BMP_temperature;BMP_pressure;BME280_temperature;BME280_humidity;BME280_pressure;Samples;Min_cycle;Max_cycle;Signal;HPM_P1;HPM_P2
2023/02/17 04:24:08;;;;;;;;;;;;;;;9.66;59.38;100600.00;1086851;54;19949;-82
2023/02/17 04:26:33;;;;;;;;;;;;;;;9.75;59.10;100605.56;1078154;54;19939;-84
2023/02/17 07:11:16;;;;;;;;;;;;;;;10.38;67.22;100655.63;1073883;54;19950;-83
2023/02/17 07:12:20;;;;;;;;;;;;;;;10.33;68.11;100652.47;1086724;54;19950;-80
2023/02/17 07:13:24;;;;;;;;;;;;;;;10.35;68.23;100656.69;1086605;54;19938;-80
2023/02/17 07:14:25;;;;;;;;;;;;;;;10.38;68.42;100667.16;1086973;54;19947;-81
2023/02/17 07:15:28;;;;;;;;;;;;;;;10.45;68.17;100667.47;1086959;54;19950;-81
2023/02/17 07:16:29;;;;;;;;;;;;;;;10.44;68.11;100665.78;1086811;54;19955;-79
2023/02/17 07:17:33;;;;;;;;;;;;;;;10.48;68.04;100663.72;1087012;54;19997;-81
2023/02/17 07:18:37;;;;;;;;;;;;;;;10.47;68.19;100667.38;1087375;54;19943;-79
2023/02/17 07:19:38;;;;;;;;;;;;;;;10.50;67.94;100667.09;1087622;54;19942;-79
2023/02/17 07:20:42;;;;;;;;;;;;;;;10.52;67.90;100667.81;1087699;54;19954;-79
2023/02/17 07:21:43;;;;;;;;;;;;;;;10.55;67.53;100662.22;1087747;46;20259;-80
2023/02/17 07:22:46;;;;;;;;;;;;;;;10.45;67.98;100673.69;1087671;54;19949;-80
2023/02/17 07:23:47;;;;;;;;;;;;;;;10.42;68.61;100663.25;1088216;39;20636;-80
2023/02/17 07:24:51;;;;;;;;;;;;;;;10.47;68.48;100665.53;1087584;54;20677;-80
2023/02/17 07:25:52;;;;;;;;;;;;;;;10.43;68.57;100667.63;1087596;54;19943;-80
2023/02/17 07:26:56;;;;;;;;;;;;;;;10.55;68.55;100672.91;1087628;54;19942;-80
2023/02/17 07:28:03;;;;;;;;;;;;;;;10.54;68.78;100661.34;1087592;54;19943;-80
2023/02/17 07:29:05;;;;;;;;;;;;;;;10.58;68.98;100656.63;1088007;39;20632;-80
2023/02/17 07:30:09;;;;;;;;;;;;;;;10.55;69.06;100662.22;1087604;54;19950;-80
2023/02/17 07:31:11;;;;;;;;;;;;;;;10.52;69.66;100652.66;1087635;54;19943;-80
2023/02/17 07:32:15;;;;;;;;;;;;;;;10.52;70.05;100658.00;1087582;54;19943;-82
2023/02/17 07:33:19;;;;;;;;;;;;;;;10.60;69.67;100660.84;1087621;54;19946;-82
2023/02/17 07:34:20;;;;;;;;;;;;;;;10.62;69.93;100663.41;1091264;39;20486;-79
2023/02/17 07:35:24;;;;;;;;;;;;;;;10.55;70.74;100662.22;1087575;54;19942;-79
2023/02/17 07:36:25;;;;;;;;;;;;;;;10.54;71.21;100661.34;1087399;54;19966;-78
2023/02/17 07:37:28;;;;;;;;;;;;;;;10.52;71.61;100665.16;1087586;54;19978;-82
2023/02/17 10:33:13;;;;;;;;;;;;;;;11.43;75.05;100716.25;1086978;54;19950;-80
2023/02/17 10:34:25;;;;;;;;;;;;;;;11.37;75.69;100709.59;1087956;46;19942;-82
2023/02/17 10:35:38;;;;;;;;;;;;;;;11.37;75.87;100717.63;1087797;54;19950;-82
2023/02/17 10:36:50;;;;;;;;;;;;;;;11.39;76.05;100710.31;1087814;54;19942;-83
2023/02/17 10:37:59;;;;;;;;;;;;;;;11.45;75.61;100719.63;1089551;46;19966;-82
2023/02/17 10:39:06;;;;;;;;;;;;;;;11.41;75.98;100714.69;1087419;54;19965;-79
2023/02/17 10:40:11;;;;;;;;;;;;;;;11.35;76.18;100718.75;1087232;54;19942;-80
2023/02/17 10:41:17;;;;;;;;;;;;;;;11.30;76.39;100711.09;1087343;54;19942;-79
2023/02/17 10:42:20;;;;;;;;;;;;;;;11.30;76.32;100711.09;1087310;54;19951;-79
2023/02/17 10:53:56;;;;;;;;;;;;;;;11.36;76.12;100704.38;1087277;54;20252;-81
2023/02/17 10:55:01;;;;;;;;;;;;;;;11.38;76.21;100700.59;1087639;54;20042;-78
2023/02/17 10:56:09;;;;;;;;;;;;;;;11.44;76.19;100709.03;1087661;54;19949;-79
2023/02/17 10:57:12;;;;;;;;;;;;;;;11.40;75.93;100716.50;1087560;54;19954;-79
2023/02/17 10:58:20;;;;;;;;;;;;;;;11.39;76.08;100699.59;1087659;54;19950;-79
2023/02/17 10:59:24;;;;;;;;;;;;;;;11.39;75.94;100704.94;1087671;54;19927;-77
2023/02/17 11:00:28;;;;;;;;;;;;;;;11.47;75.69;100692.72;1087712;54;19947;-81
2023/02/17 11:01:32;;;;;;;;;;;;;;;11.46;75.49;100699.06;1088487;39;20471;-80
2023/02/17 11:02:36;;;;;;;;;;;;;;;11.46;75.62;100704.41;1087767;54;19966;-80
2023/02/17 11:03:41;;;;;;;;;;;;;;;11.49;75.56;100688.91;1087705;54;19927;-79
2023/02/17 11:04:47;;;;;;;;;;;;;;;11.53;75.58;100694.84;1087777;54;20573;-80
2023/02/17 11:05:55;;;;;;;;;;;;;;;11.61;75.06;100697.72;1087677;54;19978;-79
2023/02/17 11:06:59;;;;;;;;;;;;;;;11.58;74.81;100692.63;1089613;39;20114;-81
2023/02/17 11:08:06;;;;;;;;;;;;;;;11.58;74.93;100697.97;1088548;46;19942;-79
2023/02/17 11:09:27;;;;;;;;;;;;;;;11.57;74.78;100690.94;1087639;54;19946;-81
2023/02/17 11:10:31;;;;;;;;;;;;;;;11.57;75.01;100690.94;1087498;54;19943;-79
2023/02/17 11:11:37;;;;;;;;;;;;;;;11.63;74.90;100692.22;1087347;47;20250;-78
2023/02/17 11:12:41;;;;;;;;;;;;;;;11.65;74.73;100692.94;1087718;54;20369;-80
2023/02/17 11:13:47;;;;;;;;;;;;;;;11.66;74.28;100694.63;1087527;54;19942;-79
2023/02/17 11:14:53;;;;;;;;;;;;;;;11.64;74.15;100689.41;1087617;54;20002;-79
2023/02/17 11:17:12;;;;;;;;;;;;;;;11.68;73.76;100688.16;1087711;47;19954;-80
2023/02/17 11:17:22;;;;;;;;;;;;;;;11.72;73.65;100704.78;1087148;54;19951;-78
2023/02/17 11:18:29;;;;;;;;;;;;;;;11.74;73.97;100693.94;1087330;54;19950;-78
2023/02/17 11:19:34;;;;;;;;;;;;;;;11.76;73.62;100692.81;1087345;54;19949;-78
2023/02/17 11:20:36;;;;;;;;;;;;;;;11.80;73.29;100690.72;1087653;47;19947;-79
2023/02/17 11:21:44;;;;;;;;;;;;;;;11.85;73.58;100691.16;1087736;47;19950;-77
2023/02/17 11:22:50;;;;;;;;;;;;;;;11.89;73.31;100689.91;1087053;54;19957;-78
2023/02/17 11:23:56;;;;;;;;;;;;;;;11.86;73.07;100696.34;1086999;54;19951;-77
2023/02/17 11:25:03;;;;;;;;;;;;;;;11.93;72.94;100685.13;1086960;54;20614;-76
2023/02/17 11:26:11;;;;;;;;;;;;;;;11.96;72.72;100696.41;1087936;46;19942;-78
2023/02/17 11:27:25;;;;;;;;;;;;;;;11.96;72.33;100688.34;1087186;54;19939;-78
2023/02/17 11:28:29;;;;;;;;;;;;;;;12.04;72.09;100687.72;1086920;54;19954;-78
2023/02/17 11:29:33;;;;;;;;;;;;;;;11.98;72.20;100691.78;1086593;54;20463;-78
2023/02/17 11:30:34;;;;;;;;;;;;;;;12.09;72.01;100679.25;1087635;39;20365;-78
2023/02/17 11:31:38;;;;;;;;;;;;;;;12.02;72.01;100679.78;1086779;54;19946;-79
2023/02/17 11:32:39;;;;;;;;;;;;;;;12.04;72.30;100678.81;1088319;39;20428;-78
2023/02/17 11:33:43;;;;;;;;;;;;;;;12.00;72.13;100686.28;1086517;54;19950;-78
2023/02/17 11:34:59;;;;;;;;;;;;;;;12.01;71.93;100678.09;1086776;54;19954;-79
2023/02/17 11:36:01;;;;;;;;;;;;;;;12.04;71.80;100681.50;1086735;54;19966;-77
2023/02/17 11:37:08;;;;;;;;;;;;;;;12.11;71.85;100687.97;1086777;54;20460;-78
2023/02/17 11:38:13;;;;;;;;;;;;;;;12.12;71.20;100681.63;1086894;54;19951;-81
2023/02/17 11:39:20;;;;;;;;;;;;;;;12.15;71.34;100684.03;1087099;54;19946;-78
2023/02/17 11:40:24;;;;;;;;;;;;;;;12.11;70.91;100678.13;1086970;54;19953;-79
2023/02/17 11:41:40;;;;;;;;;;;;;;;12.18;70.86;100683.78;1087041;54;20519;-78
2023/02/17 11:42:41;;;;;;;;;;;;;;;12.24;71.08;100680.53;1086727;54;19994;-78
2023/02/17 11:43:53;;;;;;;;;;;;;;;12.28;70.65;100673.88;1086570;54;19946;-78
2023/02/17 11:44:55;;;;;;;;;;;;;;;12.30;70.88;100682.63;1086957;54;19973;-77
2023/02/17 11:46:04;;;;;;;;;;;;;;;12.35;70.66;100681.38;1088871;46;19946;-77
2023/02/17 11:47:10;;;;;;;;;;;;;;;12.44;70.48;100678.69;1086691;54;20527;-77
2023/02/17 11:48:20;;;;;;;;;;;;;;;12.41;70.29;100675.44;1087460;54;19949;-79
2023/02/17 11:49:38;;;;;;;;;;;;;;;12.50;70.42;100681.81;1087375;54;19958;-79
2023/02/17 11:50:46;;;;;;;;;;;;;;;12.35;69.71;100678.69;1086770;54;19927;-79
2023/02/17 11:52:29;;;;;;;;;;;;;;;12.40;69.52;100681.78;1087316;54;19970;-79
2023/02/17 11:53:41;;;;;;;;;;;;;;;12.41;69.43;100683.50;1087162;54;19943;-78
2023/02/17 11:54:52;;;;;;;;;;;;;;;12.51;69.64;100686.19;1086416;54;19950;-77
2023/02/17 11:55:58;;;;;;;;;;;;;;;12.55;69.67;100680.38;1087418;54;19942;-77
2023/02/17 11:57:22;;;;;;;;;;;;;;;12.55;69.05;100672.34;1087423;54;19949;-77
2023/02/17 11:58:35;;;;;;;;;;;;;;;12.63;68.88;100677.84;1086836;54;19946;-77
2023/02/17 11:59:50;;;;;;;;;;;;;;;12.53;68.87;100671.63;1087234;54;19998;-78
2023/02/17 12:00:54;;;;;;;;;;;;;;;12.62;69.23;100681.50;1089992;39;20949;-76
2023/02/17 12:02:08;;;;;;;;;;;;;;;12.59;68.98;100680.94;1087335;54;19942;-78
2023/02/17 12:03:24;;;;;;;;;;;;;;;12.57;68.64;100678.38;1088854;39;20581;-77
2023/02/17 12:04:30;;;;;;;;;;;;;;;12.61;68.53;100670.94;1087541;54;19950;-79
2023/02/17 12:05:37;;;;;;;;;;;;;;;12.64;68.76;100679.53;1087491;54;20322;-79
2023/02/17 12:06:45;;;;;;;;;;;;;;;12.74;68.71;100676.81;1087387;54;19934;-78
2023/02/17 12:07:54;;;;;;;;;;;;;;;12.80;68.25;100678.09;1087654;54;19927;-77
2023/02/17 12:09:06;;;;;;;;;;;;;;;12.88;68.20;100678.22;1088368;47;19942;-78
2023/02/17 12:10:15;;;;;;;;;;;;;;;12.77;68.45;100668.50;1088754;47;19943;-78
2023/02/17 12:11:23;;;;;;;;;;;;;;;12.64;68.62;100667.94;1087646;47;19943;-77
2023/02/17 12:12:32;;;;;;;;;;;;;;;12.66;68.79;100667.81;1087605;54;20494;-79
2023/02/17 12:13:41;;;;;;;;;;;;;;;12.76;68.24;100674.00;1087843;47;19943;-76
2023/02/17 12:15:09;;;;;;;;;;;;;;;12.75;68.49;100661.59;1088597;47;19950;-77
2023/02/17 12:16:20;;;;;;;;;;;;;;;12.72;68.42;100667.22;1087310;54;19970;-76
2023/02/17 12:17:27;;;;;;;;;;;;;;;12.84;68.32;100662.53;1088950;39;20655;-77
2023/02/17 12:18:43;;;;;;;;;;;;;;;12.90;68.09;100657.47;1087518;54;20314;-76
2023/02/17 12:19:50;;;;;;;;;;;;;;;12.75;68.12;100665.09;1087171;54;19970;-77
2023/02/17 12:20:56;;;;;;;;;;;;;;;12.77;68.14;100662.28;1087113;47;20043;-79
2023/02/17 12:22:07;;;;;;;;;;;;;;;12.79;68.33;100654.94;1087215;54;19942;-77
2023/02/17 12:23:18;;;;;;;;;;;;;;;12.78;68.16;100661.28;1087423;54;19957;-77
2023/02/17 12:24:33;;;;;;;;;;;;;;;12.88;68.37;100662.13;1087457;54;19942;-77
2023/02/17 12:25:39;;;;;;;;;;;;;;;12.78;68.46;100661.28;1087790;46;19975;-77
2023/02/17 12:26:43;;;;;;;;;;;;;;;12.89;68.05;100668.34;1087531;54;19951;-76
2023/02/17 12:27:58;;;;;;;;;;;;;;;12.91;67.88;100659.16;1087525;54;19939;-76
2023/02/17 12:29:05;;;;;;;;;;;;;;;12.77;68.25;100657.78;1087524;54;19942;-77
2023/02/17 12:30:17;;;;;;;;;;;;;;;12.77;68.32;100657.78;1087571;54;19949;-78
2023/02/17 12:31:28;;;;;;;;;;;;;;;12.82;68.01;100659.16;1087527;54;20330;-77
2023/02/17 12:32:42;;;;;;;;;;;;;;;12.92;67.81;100662.66;1087871;54;19938;-78
2023/02/17 12:33:52;;;;;;;;;;;;;;;12.97;67.99;100659.53;1087893;54;19946;-77
2023/02/17 12:34:58;;;;;;;;;;;;;;;12.89;67.80;100650.38;1087878;54;19957;-77
2023/02/17 12:36:03;;;;;;;;;;;;;;;12.86;67.73;100660.56;1087877;54;19966;-77
2023/02/17 12:37:08;;;;;;;;;;;;;;;12.84;68.27;100663.41;1087952;54;20476;-78
2023/02/17 12:38:14;;;;;;;;;;;;;;;12.92;67.97;100658.16;1087880;54;19950;-77
2023/02/17 12:39:20;;;;;;;;;;;;;;;12.99;68.07;100657.56;1087841;54;19942;-77
2023/02/17 12:40:30;;;;;;;;;;;;;;;12.91;67.82;100653.78;1087901;54;19950;-76
2023/02/17 12:41:36;;;;;;;;;;;;;;;12.89;67.92;100649.56;1087768;54;19953;-77
2023/02/17 12:42:40;;;;;;;;;;;;;;;12.89;67.94;100649.56;1087812;54;19943;-77
2023/02/17 12:43:48;;;;;;;;;;;;;;;12.82;68.54;100646.59;1087867;54;19955;-77
2023/02/17 12:44:55;;;;;;;;;;;;;;;12.88;68.50;100654.06;1087847;54;19949;-77
2023/02/17 12:45:58;;;;;;;;;;;;;;;12.85;68.62;100650.81;1087928;54;19942;-78
2023/02/17 12:47:04;;;;;;;;;;;;;;;12.91;68.46;100642.19;1087882;54;19986;-76
2023/02/17 12:48:11;;;;;;;;;;;;;;;12.86;67.94;100658.72;1087860;54;19950;-78
2023/02/17 12:49:15;;;;;;;;;;;;;;;12.86;68.43;100648.00;1088531;46;19943;-77
2023/02/17 12:50:22;;;;;;;;;;;;;;;12.84;68.40;100652.69;1089131;46;19943;-77
2023/02/17 12:51:29;;;;;;;;;;;;;;;12.85;68.02;100657.03;1087773;54;19946;-78
2023/02/17 12:52:35;;;;;;;;;;;;;;;12.87;68.24;100662.28;1087789;54;19950;-77
2023/02/17 12:53:44;;;;;;;;;;;;;;;12.87;68.49;100651.53;1087822;54;19938;-78
2023/02/17 12:54:51;;;;;;;;;;;;;;;12.84;68.44;100662.53;1087714;54;19954;-78
2023/02/17 12:55:55;;;;;;;;;;;;;;;12.83;68.40;100655.47;1087842;54;19951;-77
2023/02/17 12:57:07;;;;;;;;;;;;;;;12.79;68.60;100654.94;1087817;54;19986;-77
2023/02/17 12:58:15;;;;;;;;;;;;;;;12.76;68.38;100653.38;1087843;54;19943;-78
2023/02/17 12:59:20;;;;;;;;;;;;;;;12.80;68.20;100651.25;1088362;46;19960;-78
2023/02/17 13:00:25;;;;;;;;;;;;;;;12.83;68.29;100650.97;1087847;54;19994;-77
2023/02/17 13:01:30;;;;;;;;;;;;;;;12.80;68.60;100654.78;1088072;46;19950;-78
2023/02/17 13:02:33;;;;;;;;;;;;;;;12.82;68.71;100649.28;1087806;54;19950;-78
2023/02/17 13:03:35;;;;;;;;;;;;;;;12.79;68.71;100658.47;1093631;39;20486;-80
2023/02/17 13:04:40;;;;;;;;;;;;;;;12.79;68.85;100644.19;1087835;54;19942;-78
2023/02/17 13:05:45;;;;;;;;;;;;;;;12.90;68.29;100643.19;1087848;54;19950;-77
2023/02/17 13:06:53;;;;;;;;;;;;;;;12.92;68.38;100649.25;1087783;54;20543;-78
2023/02/17 13:08:00;;;;;;;;;;;;;;;12.93;68.23;100651.81;1087842;54;19949;-78
2023/02/17 13:09:05;;;;;;;;;;;;;;;12.90;68.23;100649.41;1087849;54;19943;-77
2023/02/17 13:10:19;;;;;;;;;;;;;;;12.94;68.30;100642.72;1088362;46;19994;-77
2023/02/17 13:11:28;;;;;;;;;;;;;;;12.88;68.48;100643.31;1087748;54;19949;-76
2023/02/17 13:12:33;;;;;;;;;;;;;;;13.01;67.96;100644.84;1087870;54;19957;-78
2023/02/17 13:13:37;;;;;;;;;;;;;;;12.92;68.25;100639.38;1088070;46;20026;-77
2023/02/17 13:14:42;;;;;;;;;;;;;;;12.93;68.19;100646.44;1088280;46;19943;-78
2023/02/17 13:15:46;;;;;;;;;;;;;;;12.97;68.19;100646.13;1087472;54;20307;-77
2023/02/17 13:16:48;;;;;;;;;;;;;;;13.08;68.19;100638.75;1087788;54;19942;-77
2023/02/17 13:18:00;;;;;;;;;;;;;;;13.00;68.07;100635.13;1087795;54;19949;-79
2023/02/17 13:19:08;;;;;;;;;;;;;;;13.00;68.25;100630.56;1087836;54;19955;-81
2023/02/17 13:20:25;;;;;;;;;;;;;;;12.98;68.39;100631.72;1087750;54;19950;-78
2023/02/17 13:21:34;;;;;;;;;;;;;;;13.03;68.13;100632.16;1088735;46;19973;-77
2023/02/17 13:22:35;;;;;;;;;;;;;;;13.19;68.09;100629.69;1087811;54;20632;-79
2023/02/17 13:23:40;;;;;;;;;;;;;;;13.11;68.17;100638.44;1087885;54;19943;-79
2023/02/17 13:24:51;;;;;;;;;;;;;;;13.21;67.90;100633.06;1087793;54;19942;-78
2023/02/17 13:26:03;;;;;;;;;;;;;;;13.15;68.31;100630.13;1087847;54;19943;-77
2023/02/17 13:27:13;;;;;;;;;;;;;;;13.06;68.14;100629.16;1087785;54;19943;-79
2023/02/17 13:28:33;;;;;;;;;;;;;;;13.04;68.71;100623.94;1087819;54;19943;-77
2023/02/17 13:29:38;;;;;;;;;;;;;;;13.08;68.85;100630.69;1087792;54;20006;-79
2023/02/17 13:30:42;;;;;;;;;;;;;;;13.09;68.70;100629.69;1087892;54;19966;-79
2023/02/17 13:31:47;;;;;;;;;;;;;;;13.01;68.35;100632.28;1087778;54;20047;-78
2023/02/17 13:33:02;;;;;;;;;;;;;;;13.04;68.48;100636.50;1087817;54;19943;-78
2023/02/17 13:34:06;;;;;;;;;;;;;;;13.08;68.26;100635.22;1087596;54;20660;-77
2023/02/17 13:35:30;;;;;;;;;;;;;;;13.21;68.18;100624.16;1087774;54;19938;-78
2023/02/17 13:36:38;;;;;;;;;;;;;;;13.09;68.43;100628.88;1087733;39;20633;-78
2023/02/17 13:37:42;;;;;;;;;;;;;;;13.06;68.14;100630.00;1087770;54;21057;-79
2023/02/17 13:38:51;;;;;;;;;;;;;;;13.14;68.46;100625.75;1087742;54;20555;-77
2023/02/17 13:39:55;;;;;;;;;;;;;;;13.16;68.30;100618.38;1087812;54;19926;-79
2023/02/17 13:40:57;;;;;;;;;;;;;;;13.13;68.09;100614.13;1087760;54;19943;-77
2023/02/17 13:42:02;;;;;;;;;;;;;;;13.07;68.45;100617.41;1087794;54;19943;-79
2023/02/17 13:43:13;;;;;;;;;;;;;;;13.10;68.37;100622.50;1087876;47;20606;-78
2023/02/17 13:44:21;;;;;;;;;;;;;;;13.21;68.36;100616.09;1087735;54;19954;-78
2023/02/17 13:45:27;;;;;;;;;;;;;;;13.08;68.39;100611.91;1087735;54;20646;-79
2023/02/17 13:46:36;;;;;;;;;;;;;;;13.09;68.27;100610.06;1087807;54;20629;-78
2023/02/17 13:47:40;;;;;;;;;;;;;;;13.06;68.14;100605.00;1091272;39;20501;-78
2023/02/17 13:48:44;;;;;;;;;;;;;;;13.11;68.40;100608.94;1087813;54;19943;-78
2023/02/17 13:49:53;;;;;;;;;;;;;;;13.06;68.36;100603.16;1087796;54;19942;-78
2023/02/17 13:50:57;;;;;;;;;;;;;;;13.09;68.36;100608.22;1087868;54;19942;-78
2023/02/17 13:52:12;;;;;;;;;;;;;;;13.11;68.09;100605.41;1087791;54;19966;-78
2023/02/17 13:53:24;;;;;;;;;;;;;;;13.16;68.40;100605.81;1087792;54;19943;-78
2023/02/17 13:54:27;;;;;;;;;;;;;;;13.17;68.17;100599.44;1087801;54;19942;-79
2023/02/17 13:55:28;;;;;;;;;;;;;;;13.16;68.11;100605.81;1087207;54;20748;-77
2023/02/17 13:56:32;;;;;;;;;;;;;;;13.15;68.26;100601.41;1087751;54;19948;-79
2023/02/17 13:57:35;;;;;;;;;;;;;;;13.20;68.14;100599.16;1087807;54;19943;-78
2023/02/17 13:58:40;;;;;;;;;;;;;;;13.20;68.29;100603.66;1095905;39;20511;-79
2023/02/17 13:59:41;;;;;;;;;;;;;;;13.16;68.30;100602.28;1087802;54;19957;-78
2023/02/17 14:00:45;;;;;;;;;;;;;;;13.19;68.03;100604.66;1088051;46;19927;-77
2023/02/17 14:01:49;;;;;;;;;;;;;;;13.19;67.99;100596.59;1087838;54;19943;-80
2023/02/17 14:02:55;;;;;;;;;;;;;;;13.20;68.01;100600.97;1087773;54;19966;-77
2023/02/17 14:03:59;;;;;;;;;;;;;;;13.14;68.08;100599.72;1091564;46;19943;-79
2023/02/17 14:05:11;;;;;;;;;;;;;;;13.17;68.38;100594.06;1087740;54;20014;-78
2023/02/17 14:06:23;;;;;;;;;;;;;;;13.21;68.28;100595.47;1087810;54;19927;-79
2023/02/17 14:07:27;;;;;;;;;;;;;;;13.24;68.19;100595.16;1087723;54;19950;-79
2023/02/17 14:08:36;;;;;;;;;;;;;;;13.33;67.95;100592.56;1087779;54;19950;-77
2023/02/17 14:09:38;;;;;;;;;;;;;;;13.32;67.72;100585.53;1087884;54;20665;-80
2023/02/17 14:10:42;;;;;;;;;;;;;;;13.29;68.17;100583.97;1087836;54;19942;-77
2023/02/17 14:11:45;;;;;;;;;;;;;;;13.39;67.72;100586.66;1087740;54;19943;-79
2023/02/17 14:12:48;;;;;;;;;;;;;;;13.37;67.76;100588.59;1087797;54;19942;-79
2023/02/17 14:13:53;;;;;;;;;;;;;;;13.45;67.56;100586.03;1087778;54;19950;-79
2023/02/17 14:14:56;;;;;;;;;;;;;;;13.50;67.41;100589.13;1087861;54;19962;-78
2023/02/17 14:16:01;;;;;;;;;;;;;;;13.40;67.45;100588.34;1087688;54;19938;-78
2023/02/17 14:17:08;;;;;;;;;;;;;;;13.51;67.42;100592.66;1088530;46;19943;-78
2023/02/17 14:18:13;;;;;;;;;;;;;;;13.48;67.69;100593.81;1087748;54;20216;-78
2023/02/17 14:19:17;;;;;;;;;;;;;;;13.53;67.28;100588.81;1087663;47;19943;-78
2023/02/17 14:20:28;;;;;;;;;;;;;;;13.66;67.23;100587.63;1088091;46;19950;-78
2023/02/17 14:21:29;;;;;;;;;;;;;;;13.64;66.76;100594.97;1087652;54;19946;-78
2023/02/17 14:22:34;;;;;;;;;;;;;;;13.56;66.92;100588.53;1087674;54;19950;-78
2023/02/17 14:23:43;;;;;;;;;;;;;;;13.47;67.28;100591.25;1087723;54;19949;-80
2023/02/17 14:24:46;;;;;;;;;;;;;;;13.44;67.30;100600.47;1087701;54;19950;-80
2023/02/17 14:25:51;;;;;;;;;;;;;;;13.49;67.21;100600.88;1087665;54;20012;-77
2023/02/17 14:26:55;;;;;;;;;;;;;;;13.47;67.21;100597.50;1087728;54;19946;-79
2023/02/17 14:28:00;;;;;;;;;;;;;;;13.43;67.11;100603.31;1087805;54;19943;-78
2023/02/17 14:29:05;;;;;;;;;;;;;;;13.49;67.13;100605.38;1090210;39;20092;-79
2023/02/17 14:30:14;;;;;;;;;;;;;;;13.52;66.93;100600.56;1087677;54;20547;-79
2023/02/17 14:31:18;;;;;;;;;;;;;;;13.51;66.90;100592.66;1087593;54;19975;-78
2023/02/17 14:32:31;;;;;;;;;;;;;;;13.49;67.07;100591.94;1087712;54;20565;-79
2023/02/17 14:33:32;;;;;;;;;;;;;;;13.56;67.14;100593.03;1087690;54;20519;-79
2023/02/17 14:34:37;;;;;;;;;;;;;;;13.67;66.95;100594.69;1087751;54;20001;-78
2023/02/17 14:35:48;;;;;;;;;;;;;;;13.62;66.68;100595.13;1087686;54;19950;-78
2023/02/17 14:36:51;;;;;;;;;;;;;;;13.67;67.08;100589.31;1087772;54;19994;-77
2023/02/17 14:37:52;;;;;;;;;;;;;;;13.74;66.49;100587.69;1087623;54;19943;-79
2023/02/17 14:38:57;;;;;;;;;;;;;;;13.83;66.30;100586.78;1087713;54;19957;-77
2023/02/17 14:40:01;;;;;;;;;;;;;;;13.91;65.93;100585.16;1087723;54;19947;-78
2023/02/17 14:41:02;;;;;;;;;;;;;;;14.04;65.79;100585.63;1087690;54;19942;-78
2023/02/17 14:42:06;;;;;;;;;;;;;;;14.02;65.73;100584.94;1087624;54;19949;-78
2023/02/17 14:43:09;;;;;;;;;;;;;;;14.04;65.90;100575.72;1087767;54;20697;-79
2023/02/17 14:44:13;;;;;;;;;;;;;;;14.06;65.60;100578.28;1087646;54;19951;-78
2023/02/17 14:45:14;;;;;;;;;;;;;;;14.01;65.70;100581.41;1087623;54;19943;-78
2023/02/17 14:46:18;;;;;;;;;;;;;;;13.99;65.94;100579.84;1088127;47;19942;-77
2023/02/17 14:47:22;;;;;;;;;;;;;;;13.89;66.16;100575.41;1087666;54;19999;-78
2023/02/17 14:48:26;;;;;;;;;;;;;;;13.84;66.16;100575.03;1087599;54;20476;-79
2023/02/17 14:49:29;;;;;;;;;;;;;;;13.84;66.47;100579.56;1087619;54;19962;-78
2023/02/17 14:50:33;;;;;;;;;;;;;;;13.89;65.99;100578.09;1087654;54;19946;-78
2023/02/17 14:51:38;;;;;;;;;;;;;;;13.87;66.11;100577.44;1087605;54;19942;-79
2023/02/17 14:52:41;;;;;;;;;;;;;;;13.82;66.55;100571.66;1087583;54;20591;-79
2023/02/17 14:53:45;;;;;;;;;;;;;;;13.80;66.61;100564.75;1087666;54;19942;-77
2023/02/17 14:54:46;;;;;;;;;;;;;;;13.78;66.35;100561.38;1087690;54;19942;-78
2023/02/17 14:55:52;;;;;;;;;;;;;;;13.72;66.63;100568.19;1087850;46;19969;-79
2023/02/17 14:57:01;;;;;;;;;;;;;;;13.78;66.87;100559.53;1088528;39;20607;-78
2023/02/17 14:58:05;;;;;;;;;;;;;;;13.74;66.47;100560.81;1087742;47;19954;-80
2023/02/17 14:59:11;;;;;;;;;;;;;;;13.69;66.91;100550.53;1087599;54;19943;-79
2023/02/17 15:00:13;;;;;;;;;;;;;;;13.74;67.11;100555.44;1087675;54;19942;-79
2023/02/17 15:01:18;;;;;;;;;;;;;;;13.60;67.06;100551.47;1087682;54;19978;-79
2023/02/17 15:02:20;;;;;;;;;;;;;;;13.62;67.15;100548.59;1087594;54;19958;-77
2023/02/17 15:03:24;;;;;;;;;;;;;;;13.61;67.35;100549.59;1087622;54;19943;-80
2023/02/17 15:04:30;;;;;;;;;;;;;;;13.58;67.28;100558.81;1087590;54;19950;-79
2023/02/17 15:05:31;;;;;;;;;;;;;;;13.57;67.38;100547.25;1087676;54;19950;-79
2023/02/17 15:06:38;;;;;;;;;;;;;;;13.61;67.32;100545.09;1090167;46;20705;-78
2023/02/17 15:07:42;;;;;;;;;;;;;;;13.63;67.36;100542.25;1087668;54;19951;-79
2023/02/17 15:08:48;;;;;;;;;;;;;;;13.60;67.29;100550.63;1087543;54;19942;-79
2023/02/17 15:09:49;;;;;;;;;;;;;;;13.60;67.27;100551.47;1087670;54;19951;-79
2023/02/17 15:10:52;;;;;;;;;;;;;;;13.61;67.43;100549.59;1087651;54;19949;-78
2023/02/17 15:11:54;;;;;;;;;;;;;;;13.54;67.36;100552.91;1087572;54;19942;-79
2023/02/17 15:12:58;;;;;;;;;;;;;;;13.55;67.60;100546.53;1087659;54;20314;-79
2023/02/17 15:14:02;;;;;;;;;;;;;;;13.54;67.34;100557.44;1087591;54;19949;-78
2023/02/17 15:15:06;;;;;;;;;;;;;;;13.56;67.49;100558.13;1087600;54;19943;-78
2023/02/17 15:16:09;;;;;;;;;;;;;;;13.58;67.17;100548.06;1087682;54;19949;-77
2023/02/17 15:17:15;;;;;;;;;;;;;;;13.58;67.44;100558.81;1087673;54;19942;-78
2023/02/17 15:18:17;;;;;;;;;;;;;;;13.53;67.12;100556.59;1087636;54;19942;-77
2023/02/17 15:19:20;;;;;;;;;;;;;;;13.52;67.62;100552.19;1087625;54;19927;-78
2023/02/17 15:20:24;;;;;;;;;;;;;;;13.47;67.76;100557.19;1089846;46;19940;-78
2023/02/17 15:21:29;;;;;;;;;;;;;;;13.55;67.62;100549.22;1087569;54;19950;-79
2023/02/17 15:22:30;;;;;;;;;;;;;;;13.54;67.52;100555.59;1087596;54;20018;-78
2023/02/17 15:23:35;;;;;;;;;;;;;;;13.56;67.62;100552.75;1093973;39;20625;-77
2023/02/17 15:24:37;;;;;;;;;;;;;;;13.48;67.96;100550.84;1087680;54;20004;-79
2023/02/17 15:25:41;;;;;;;;;;;;;;;13.45;68.05;100545.75;1087652;54;19943;-79
2023/02/17 15:26:46;;;;;;;;;;;;;;;13.45;67.97;100543.06;1087642;54;19946;-78
2023/02/17 15:27:49;;;;;;;;;;;;;;;13.42;68.32;100548.75;1087672;54;19942;-76
2023/02/17 15:28:55;;;;;;;;;;;;;;;13.47;67.97;100549.16;1087650;54;19942;-77
2023/02/17 15:29:59;;;;;;;;;;;;;;;13.33;68.42;100544.25;1087628;54;19947;-78
2023/02/17 15:31:03;;;;;;;;;;;;;;;13.31;68.30;100546.25;1087634;54;19953;-79
2023/02/17 15:32:11;;;;;;;;;;;;;;;13.33;68.45;100549.59;1087640;54;19943;-79
2023/02/17 15:33:15;;;;;;;;;;;;;;;13.32;68.50;100553.31;1087684;54;19979;-77
2023/02/17 15:34:21;;;;;;;;;;;;;;;13.31;68.47;100557.00;1089608;39;20574;-78
2023/02/17 15:35:26;;;;;;;;;;;;;;;13.31;68.66;100554.31;1087685;54;19927;-78
2023/02/17 15:36:31;;;;;;;;;;;;;;;13.36;68.67;100560.91;1087592;54;19946;-79
2023/02/17 15:37:32;;;;;;;;;;;;;;;13.46;68.18;100563.56;1088373;39;20207;-77
2023/02/17 15:38:35;;;;;;;;;;;;;;;13.39;68.39;100557.13;1087588;54;20019;-79
2023/02/17 15:39:39;;;;;;;;;;;;;;;13.29;68.45;100558.97;1087587;54;19943;-79
2023/02/17 15:40:40;;;;;;;;;;;;;;;13.27;68.41;100548.41;1087568;54;19954;-77
2023/02/17 15:41:45;;;;;;;;;;;;;;;13.34;68.28;100556.66;1087565;54;19947;-77
2023/02/17 15:42:48;;;;;;;;;;;;;;;13.26;68.43;100555.59;1087601;54;19950;-77
2023/02/17 15:43:52;;;;;;;;;;;;;;;13.22;68.52;100559.59;1088343;39;20455;-78
2023/02/17 15:44:54;;;;;;;;;;;;;;;13.19;68.87;100559.00;1087641;54;19966;-78
2023/02/17 15:45:58;;;;;;;;;;;;;;;13.20;68.66;100558.88;1087844;47;19947;-78
2023/02/17 15:47:02;;;;;;;;;;;;;;;13.16;68.80;100549.44;1087657;54;19943;-78
2023/02/17 15:48:05;;;;;;;;;;;;;;;13.23;68.51;100566.63;1087660;54;19943;-80
2023/02/17 15:49:11;;;;;;;;;;;;;;;13.26;68.13;100574.38;1095017;39;20495;-80
2023/02/17 15:50:19;;;;;;;;;;;;;;;13.21;68.54;100570.44;1087665;54;19935;-80
2023/02/17 15:51:23;;;;;;;;;;;;;;;13.22;68.43;100570.31;1087601;54;19943;-78
2023/02/17 15:52:27;;;;;;;;;;;;;;;13.32;68.24;100580.16;1087605;54;19950;-78
2023/02/17 15:53:31;;;;;;;;;;;;;;;13.32;68.26;100569.44;1087613;54;19950;-79